Time;durP1;ratioP1;P1;durP2;ratioP2;P2;SDS_P1;SDS_P2;PMS_P1;PMS_P2;Temp;Humidity;BMP_temperature;BMP_pressure;BME280_temperature;BME280_humidity;BME280_pressure;Samples;Min_cycle;Max_cycle;Signal;HPM_P1;HPM_P2
2022/07/24 00:01:36;;;;;;;2.23;2.13;;;;;;;24.33;65.82;97783.91;5056789;28;20243;-31
2022/07/24 00:04:03;;;;;;;2.60;2.40;;;;;;;24.40;65.66;97798.63;5060728;28;20200;-31
2022/07/24 00:06:30;;;;;;;2.20;2.10;;;;;;;24.40;65.21;97798.63;5052350;28;20251;-31
2022/07/24 00:08:57;;;;;;;2.57;2.37;;;;;;;24.40;65.72;97804.66;5064610;28;20265;-31
2022/07/24 00:11:23;;;;;;;2.70;2.50;;;;;;;24.41;65.44;97810.63;5062825;28;20239;-31
2022/07/24 00:13:50;;;;;;;2.30;2.20;;;;;;;24.42;65.30;97807.25;5062062;28;20248;-31
2022/07/24 00:16:17;;;;;;;2.37;2.20;;;;;;;24.42;65.39;97809.81;5059347;28;20283;-31
2022/07/24 00:18:44;;;;;;;2.40;2.20;;;;;;;24.43;65.34;97803.84;5055531;28;20207;-31
2022/07/24 00:21:10;;;;;;;2.83;2.63;;;;;;;24.42;65.22;97807.25;5053517;28;20667;-31
2022/07/24 00:23:37;;;;;;;2.30;2.20;;;;;;;24.42;65.41;97812.41;5063601;28;20235;-31
2022/07/24 00:26:04;;;;;;;2.47;2.30;;;;;;;24.41;65.49;97808.06;5059113;28;20358;-31
2022/07/24 00:28:30;;;;;;;2.73;2.53;;;;;;;24.42;65.22;97809.81;5062149;28;20291;-31
2022/07/24 00:30:57;;;;;;;2.90;2.70;;;;;;;24.37;65.31;97806.28;5054243;28;20753;-31
2022/07/24 00:33:23;;;;;;;2.30;2.20;;;;;;;24.42;65.52;97813.25;5060836;28;20283;-31
2022/07/24 00:35:50;;;;;;;2.23;2.13;;;;;;;24.36;65.25;97805.41;5061453;28;20232;-31
2022/07/24 00:38:16;;;;;;;2.60;2.40;;;;;;;24.42;65.41;97813.25;5057561;28;20466;-31
2022/07/24 00:40:43;;;;;;;2.53;2.33;;;;;;;24.43;65.68;97819.25;5070403;28;20651;-31
2022/07/24 00:43:10;;;;;;;2.17;2.07;;;;;;;24.42;65.63;97814.97;5059801;28;20196;-31
2022/07/24 00:45:37;;;;;;;2.30;2.20;;;;;;;24.42;65.73;97812.41;5062927;28;20283;-31
2022/07/24 00:48:05;;;;;;;2.40;2.30;;;;;;;24.41;65.23;97805.50;5059459;28;20278;-31
2022/07/24 00:50:34;;;;;;;2.33;2.23;;;;;;;24.42;65.84;97813.25;5049853;28;20200;-31
2022/07/24 00:53:00;;;;;;;2.83;2.63;;;;;;;24.40;65.86;97808.91;5033752;28;20699;-31
2022/07/24 00:55:27;;;;;;;2.53;2.37;;;;;;;24.33;65.30;97792.47;5058911;28;20200;-31
2022/07/24 00:57:53;;;;;;;2.40;2.30;;;;;;;24.42;65.71;97802.13;5035115;28;20311;-31
2022/07/24 01:00:21;;;;;;;2.30;2.20;;;;;;;24.42;65.31;97796.97;5056013;28;20345;-31
2022/07/24 01:02:48;;;;;;;2.40;2.30;;;;;;;24.41;65.74;97798.66;5068791;28;20193;-31
2022/07/24 01:05:14;;;;;;;2.30;2.20;;;;;;;24.40;65.71;97802.09;5067237;28;20235;-31
2022/07/24 01:07:41;;;;;;;2.53;2.33;;;;;;;24.41;65.73;97800.34;5067648;28;20641;-31
2022/07/24 01:10:08;;;;;;;2.47;2.30;;;;;;;24.41;65.53;97798.66;5058596;28;20236;-31
2022/07/24 01:12:36;;;;;;;3.17;2.30;;;;;;;24.42;65.24;97799.53;5059842;28;20228;-31
2022/07/24 01:15:03;;;;;;;2.70;2.50;;;;;;;24.41;65.30;97802.94;5052352;28;20310;-31
2022/07/24 01:17:31;;;;;;;2.57;2.37;;;;;;;24.40;65.29;97791.81;5065669;28;20631;-31
2022/07/24 01:19:58;;;;;;;2.77;2.57;;;;;;;24.40;65.67;97796.94;5058977;28;20220;-31
2022/07/24 01:22:25;;;;;;;2.70;2.50;;;;;;;24.39;65.64;97799.47;5058301;28;20287;-31
2022/07/24 01:24:52;;;;;;;2.60;2.40;;;;;;;24.40;65.25;97796.06;5057426;28;20239;-31
2022/07/24 01:27:20;;;;;;;2.70;2.50;;;;;;;24.32;65.75;97783.06;5039726;28;20225;-31
2022/07/24 01:29:46;;;;;;;2.50;2.30;;;;;;;24.40;65.30;97796.06;5036071;28;20283;-31
2022/07/24 01:32:13;;;;;;;2.90;2.70;;;;;;;24.39;65.35;97797.75;5060784;28;20239;-31
2022/07/24 01:34:39;;;;;;;3.03;2.83;;;;;;;24.40;65.80;97791.81;5061406;28;20296;-31
2022/07/24 01:37:06;;;;;;;2.53;2.33;;;;;;;24.37;65.74;97791.72;5069803;28;20213;-31
2022/07/24 01:39:33;;;;;;;2.60;2.40;;;;;;;24.37;65.17;97788.28;5057719;28;20675;-31
2022/07/24 01:41:59;;;;;;;2.30;2.20;;;;;;;24.38;65.32;97793.47;5034738;28;20211;-31
2022/07/24 01:44:26;;;;;;;2.87;2.67;;;;;;;24.36;65.20;97789.97;5069453;28;20232;-31
2022/07/24 01:46:52;;;;;;;2.70;2.50;;;;;;;24.42;65.36;97799.53;5059258;28;20260;-31
2022/07/24 01:49:19;;;;;;;2.70;2.50;;;;;;;24.43;65.86;97806.41;5059334;28;20626;-31
2022/07/24 01:51:46;;;;;;;2.80;2.60;;;;;;;24.36;65.66;97789.09;5072154;28;20720;-31
2022/07/24 01:54:12;;;;;;;2.57;2.37;;;;;;;24.42;65.61;97799.53;5039490;28;20286;-31
2022/07/24 01:56:39;;;;;;;2.47;2.37;;;;;;;24.42;65.53;97797.81;5063974;28;20259;-31
2022/07/24 01:59:05;;;;;;;2.63;2.43;;;;;;;24.42;65.66;97796.97;5067879;28;20196;-31
2022/07/24 02:01:34;;;;;;;2.70;2.50;;;;;;;24.42;65.58;97789.28;5058420;28;20224;-31
2022/07/24 02:04:01;;;;;;;3.50;2.87;;;;;;;24.42;65.43;97797.81;5067766;28;20297;-31
2022/07/24 02:06:27;;;;;;;2.67;2.47;;;;;;;24.42;65.71;97797.81;5041487;28;20246;-31
2022/07/24 02:08:54;;;;;;;2.50;2.30;;;;;;;24.36;65.71;97787.41;5063006;28;20292;-31
2022/07/24 02:11:20;;;;;;;2.63;2.40;;;;;;;24.42;65.68;97799.53;5057362;28;20220;-31
2022/07/24 02:13:47;;;;;;;2.70;2.50;;;;;;;24.41;65.36;97790.09;5062341;28;20231;-31
2022/07/24 02:16:13;;;;;;;2.80;2.60;;;;;;;24.41;65.44;97790.97;5058954;28;20742;-31
2022/07/24 02:18:40;;;;;;;2.80;2.60;;;;;;;24.41;65.48;97785.81;5062326;28;20220;-31
2022/07/24 02:21:07;;;;;;;2.60;2.40;;;;;;;24.41;65.56;97793.53;5069400;28;20651;-31
2022/07/24 02:23:33;;;;;;;2.30;2.20;;;;;;;24.41;65.71;97788.41;5059574;28;20224;-31
2022/07/24 02:26:00;;;;;;;2.77;2.57;;;;;;;24.41;66.05;97787.50;5061344;28;20224;-31
2022/07/24 02:28:26;;;;;;;2.77;2.57;;;;;;;24.42;65.56;97791.84;5094656;22;20247;-23
2022/07/24 02:30:54;;;;;;;2.83;2.63;;;;;;;24.41;65.40;97788.41;5092540;28;20419;-23
2022/07/24 02:33:20;;;;;;;2.90;2.70;;;;;;;24.40;65.66;97791.81;5092244;28;20257;-23
2022/07/24 02:35:47;;;;;;;2.70;2.50;;;;;;;24.41;65.31;97784.94;5092038;28;20577;-23
2022/07/24 02:38:14;;;;;;;2.80;2.60;;;;;;;24.41;65.83;97784.94;5092550;28;20250;-23
2022/07/24 02:40:40;;;;;;;2.57;2.43;;;;;;;24.41;65.42;97790.97;5091983;28;20250;-22
2022/07/24 02:43:07;;;;;;;2.77;2.57;;;;;;;24.41;65.47;97796.09;5092082;28;20269;-23
2022/07/24 02:45:33;;;;;;;2.47;2.27;;;;;;;24.41;65.57;97784.94;5091088;28;20232;-23
2022/07/24 02:48:00;;;;;;;2.80;2.60;;;;;;;24.38;65.83;97785.75;5092334;28;20314;-22
2022/07/24 02:50:30;;;;;;;2.70;2.50;;;;;;;24.40;65.39;97794.38;5091531;28;20238;-23
2022/07/24 02:52:56;;;;;;;2.70;2.50;;;;;;;24.39;65.82;97794.34;5092080;28;20643;-23
2022/07/24 02:55:23;;;;;;;2.33;2.23;;;;;;;24.39;65.76;97805.47;5091650;28;20243;-23
2022/07/24 02:57:50;;;;;;;2.70;2.50;;;;;;;24.40;65.39;97802.09;5092106;28;20247;-22
2022/07/24 03:00:17;;;;;;;2.80;2.60;;;;;;;24.28;65.50;97786.34;5091733;28;20761;-23
2022/07/24 03:02:43;;;;;;;3.10;2.90;;;;;;;24.40;65.73;97809.78;5091786;28;20721;-23
2022/07/24 03:05:10;;;;;;;2.93;2.73;;;;;;;24.42;65.28;97807.25;5091502;28;20898;-23
2022/07/24 03:07:36;;;;;;;2.90;2.70;;;;;;;24.42;65.73;97812.41;5091580;28;20281;-23
2022/07/24 03:10:04;;;;;;;3.10;2.90;;;;;;;24.29;65.52;97785.56;5091787;28;20709;-23
2022/07/24 03:12:31;;;;;;;2.77;2.57;;;;;;;24.42;65.38;97799.53;5091682;28;20292;-23
2022/07/24 03:14:57;;;;;;;2.40;2.30;;;;;;;24.42;65.37;97797.81;5091759;28;20644;-22
2022/07/24 03:17:24;;;;;;;2.97;2.67;;;;;;;24.42;65.30;97799.53;5091800;28;20262;-23
2022/07/24 03:19:50;;;;;;;3.10;2.90;;;;;;;24.42;65.39;97802.13;5091499;28;20203;-23
2022/07/24 03:22:17;;;;;;;2.80;2.60;;;;;;;24.42;65.63;97809.81;5091406;28;20303;-23
2022/07/24 03:24:44;;;;;;;2.83;2.63;;;;;;;24.42;65.52;97812.41;5091394;28;20561;-22
2022/07/24 03:27:10;;;;;;;2.73;2.53;;;;;;;24.42;65.39;97808.09;5091415;28;20601;-23
2022/07/24 03:29:37;;;;;;;2.90;2.70;;;;;;;24.41;65.25;97811.50;5091446;28;20249;-22
2022/07/24 03:32:04;;;;;;;2.67;2.47;;;;;;;24.41;65.40;97814.09;5091453;28;20759;-23
2022/07/24 03:34:30;;;;;;;2.90;2.70;;;;;;;24.41;65.53;97815.78;5091931;28;20207;-23
2022/07/24 03:36:57;;;;;;;2.87;2.67;;;;;;;24.40;65.45;97820.06;5090843;28;20236;-23
2022/07/24 03:39:23;;;;;;;2.70;2.40;;;;;;;24.40;65.70;97814.94;5091330;28;20215;-23
2022/07/24 03:41:50;;;;;;;3.00;2.80;;;;;;;24.41;65.31;97813.22;5090961;28;20430;-23
2022/07/24 03:44:16;;;;;;;2.70;2.50;;;;;;;24.41;65.34;97810.63;5091769;28;20230;-23
2022/07/24 03:46:43;;;;;;;2.80;2.60;;;;;;;24.41;65.50;97816.66;5090809;28;20286;-22
2022/07/24 03:49:10;;;;;;;2.90;2.70;;;;;;;24.40;65.43;97814.06;5091090;28;20254;-23
2022/07/24 03:51:37;;;;;;;3.27;3.07;;;;;;;24.41;65.33;97808.06;5090982;28;20268;-23
2022/07/24 03:54:03;;;;;;;2.83;2.63;;;;;;;24.40;65.72;97812.34;5090969;28;20257;-23
2022/07/24 03:56:30;;;;;;;3.10;2.90;;;;;;;24.40;65.75;97809.78;5091069;28;20804;-24
2022/07/24 03:58:56;;;;;;;2.90;2.70;;;;;;;24.41;65.73;97813.22;5090868;28;20274;-22
2022/07/24 04:01:23;;;;;;;2.90;2.70;;;;;;;24.40;65.46;97812.34;5090913;28;20673;-23
2022/07/24 04:03:50;;;;;;;3.10;2.90;;;;;;;24.41;65.48;97816.66;5090083;28;20204;-23
2022/07/24 04:06:16;;;;;;;2.80;2.60;;;;;;;24.40;65.43;97814.94;5089919;28;20199;-23
2022/07/24 04:08:43;;;;;;;2.33;2.23;;;;;;;24.40;65.53;97820.06;5090758;28;20266;-23
2022/07/24 04:11:10;;;;;;;2.97;2.77;;;;;;;24.40;65.38;97822.63;5090928;28;20227;-23
2022/07/24 04:13:36;;;;;;;3.00;2.80;;;;;;;24.39;65.33;97823.44;5090611;28;20745;-23
2022/07/24 04:16:09;;;;;;;2.90;2.70;;;;;;;24.33;65.40;97802.75;5090488;28;20218;-22
2022/07/24 04:18:35;;;;;;;3.20;3.00;;;;;;;24.39;65.52;97814.91;5089688;28;20657;-23
2022/07/24 04:21:02;;;;;;;3.27;3.00;;;;;;;24.34;65.82;97813.91;5088349;28;20668;-23
2022/07/24 04:23:29;;;;;;;3.00;2.70;;;;;;;24.39;65.26;97820.03;5090921;28;20273;-23
2022/07/24 04:25:55;;;;;;;2.60;2.40;;;;;;;24.39;65.72;97823.44;5090260;28;20238;-22
2022/07/24 04:28:22;;;;;;;2.80;2.60;;;;;;;24.37;65.53;97821.69;5090511;28;20310;-22
2022/07/24 04:30:48;;;;;;;3.13;2.93;;;;;;;24.41;65.70;97831.19;5090307;28;20302;-23
2022/07/24 04:33:15;;;;;;;3.00;2.80;;;;;;;24.41;65.93;97841.47;5083686;28;20282;-25
2022/07/24 04:35:41;;;;;;;3.00;2.80;;;;;;;24.40;65.20;97827.78;5089995;28;20242;-22
2022/07/24 04:38:08;;;;;;;3.03;2.83;;;;;;;24.40;65.60;97834.59;5090470;28;20247;-22
2022/07/24 04:40:34;;;;;;;3.10;2.90;;;;;;;24.42;65.40;97832.94;5090449;28;20559;-23
2022/07/24 04:43:01;;;;;;;2.90;2.70;;;;;;;24.41;65.46;97829.50;5090484;28;20238;-23
2022/07/24 04:45:28;;;;;;;3.00;2.80;;;;;;;24.40;65.38;97825.19;5090220;28;20249;-23
2022/07/24 04:48:00;;;;;;;3.60;2.80;;;;;;;24.43;65.32;97839.81;5090438;28;20296;-23
2022/07/24 04:50:27;;;;;;;2.73;2.53;;;;;;;24.42;65.29;97838.09;5090280;28;20196;-23
2022/07/24 04:52:54;;;;;;;2.73;2.53;;;;;;;24.41;65.54;97846.59;5090430;28;20238;-23
2022/07/24 04:55:20;;;;;;;3.10;2.90;;;;;;;24.41;65.72;97838.91;5090124;28;20257;-22
2022/07/24 04:57:47;;;;;;;3.20;2.90;;;;;;;24.35;65.47;97831.06;5090232;28;20310;-22
2022/07/24 05:00:14;;;;;;;3.23;2.93;;;;;;;24.41;65.55;97841.47;5090217;28;20227;-23
2022/07/24 05:02:41;;;;;;;2.90;2.70;;;;;;;24.41;65.70;97844.91;5090274;28;20219;-23
2022/07/24 05:05:07;;;;;;;2.80;2.60;;;;;;;24.31;65.38;97824.13;5090457;28;20294;-24
2022/07/24 05:07:34;;;;;;;2.83;2.63;;;;;;;24.41;65.33;97847.47;5090018;28;20258;-22
2022/07/24 05:10:00;;;;;;;3.10;2.80;;;;;;;24.41;65.33;97850.06;5090392;28;20235;-22
2022/07/24 05:12:27;;;;;;;3.10;2.90;;;;;;;24.40;65.43;97850.91;5089588;28;20204;-22
2022/07/24 05:14:54;;;;;;;3.00;2.80;;;;;;;24.40;65.65;97853.47;5093527;28;20195;-23
2022/07/24 05:17:20;;;;;;;2.90;2.70;;;;;;;24.41;65.75;97859.44;5093745;28;20219;-22
2022/07/24 05:19:47;;;;;;;2.80;2.60;;;;;;;24.40;65.81;97842.31;5094084;28;20238;-23
2022/07/24 05:22:13;;;;;;;3.20;3.00;;;;;;;24.41;65.70;97851.75;5093669;28;20239;-23
2022/07/24 05:24:40;;;;;;;3.60;2.83;;;;;;;24.41;65.44;97846.59;5093863;28;20294;-23
2022/07/24 05:27:07;;;;;;;3.07;2.87;;;;;;;24.41;65.52;97841.47;5088014;28;20623;-22
2022/07/24 05:29:38;;;;;;;3.03;2.83;;;;;;;24.40;65.58;97840.63;5094107;28;20203;-23
2022/07/24 05:32:07;;;;;;;3.00;2.80;;;;;;;24.40;65.62;97832.03;5086480;28;20196;-23
2022/07/24 05:34:34;;;;;;;2.90;2.70;;;;;;;24.39;65.41;97836.28;5090416;28;20238;-23
2022/07/24 05:37:06;;;;;;;2.70;2.50;;;;;;;24.40;65.86;97842.31;5085481;28;20568;-23
2022/07/24 05:39:33;;;;;;;2.93;2.73;;;;;;;24.39;65.90;97835.44;5093328;28;20238;-23
2022/07/24 05:41:59;;;;;;;2.80;2.60;;;;;;;24.38;65.32;97839.72;5093568;28;20669;-23
2022/07/24 05:44:26;;;;;;;2.97;2.77;;;;;;;24.40;65.94;97847.44;5093499;28;20253;-23
2022/07/24 05:46:52;;;;;;;3.00;2.80;;;;;;;24.39;65.75;97844.00;5093167;28;20238;-24
2022/07/24 05:49:19;;;;;;;2.87;2.67;;;;;;;24.39;65.43;97848.28;5093420;28;20241;-23
2022/07/24 05:51:46;;;;;;;3.20;3.00;;;;;;;24.40;65.76;97844.88;5092783;28;20196;-22
2022/07/24 05:54:12;;;;;;;3.10;2.90;;;;;;;24.41;65.48;97849.16;5093426;28;20620;-22
2022/07/24 05:56:40;;;;;;;2.93;2.73;;;;;;;24.41;65.72;97849.16;5092931;28;20715;-22
2022/07/24 05:59:06;;;;;;;3.20;3.00;;;;;;;24.40;65.67;97845.75;5085125;28;20250;-22
2022/07/24 06:01:34;;;;;;;3.00;2.80;;;;;;;24.41;65.73;97852.63;5093204;28;20624;-22
2022/07/24 06:04:00;;;;;;;3.10;2.90;;;;;;;24.42;65.81;97853.50;5092723;28;20253;-23
2022/07/24 06:06:27;;;;;;;3.00;2.80;;;;;;;24.41;65.57;97844.91;5093121;28;20239;-23
2022/07/24 06:08:54;;;;;;;3.40;3.10;;;;;;;24.42;66.15;97853.50;5092949;28;20298;-23
2022/07/24 06:11:22;;;;;;;3.17;2.97;;;;;;;24.42;65.38;97856.06;5092988;28;20290;-23
2022/07/24 06:13:50;;;;;;;3.40;3.20;;;;;;;24.42;65.75;97859.47;5090733;28;20298;-23
2022/07/24 06:16:16;;;;;;;3.00;2.80;;;;;;;24.42;65.72;97856.91;5092432;28;20199;-22
2022/07/24 06:18:43;;;;;;;2.70;2.50;;;;;;;24.42;65.73;97854.34;5092875;28;20300;-22
2022/07/24 06:21:10;;;;;;;3.00;2.80;;;;;;;24.42;65.49;97854.34;5092801;28;20277;-23
2022/07/24 06:23:36;;;;;;;2.97;2.77;;;;;;;24.36;65.59;97841.34;5092740;28;20235;-23
2022/07/24 06:26:03;;;;;;;3.23;3.03;;;;;;;24.43;65.36;97847.53;5091637;28;20269;-23
2022/07/24 06:28:30;;;;;;;2.83;2.63;;;;;;;24.42;65.92;97850.94;5084496;28;20314;-23
2022/07/24 06:30:57;;;;;;;2.80;2.60;;;;;;;24.43;65.37;97844.94;5092227;28;20533;-22
2022/07/24 06:33:25;;;;;;;3.03;2.83;;;;;;;24.43;65.70;97856.09;5089559;28;20238;-22
2022/07/24 06:35:51;;;;;;;3.23;2.93;;;;;;;24.42;65.65;97850.94;5090359;28;20235;-22
2022/07/24 06:38:18;;;;;;;3.40;3.20;;;;;;;24.42;65.56;97854.34;5092382;28;20211;-22
2022/07/24 06:40:44;;;;;;;2.83;2.63;;;;;;;24.38;65.81;97846.53;5092137;28;20611;-23
2022/07/24 06:43:11;;;;;;;3.07;2.87;;;;;;;24.43;65.66;97850.09;5092322;28;20258;-23
2022/07/24 06:45:38;;;;;;;2.90;2.70;;;;;;;24.42;65.83;97849.22;5090774;28;20235;-23
2022/07/24 06:48:05;;;;;;;3.07;2.87;;;;;;;24.43;65.95;97847.53;5092069;28;20258;-22
2022/07/24 06:50:31;;;;;;;3.23;3.03;;;;;;;24.42;65.97;97849.22;5092615;28;20204;-23
2022/07/24 06:52:58;;;;;;;2.90;2.70;;;;;;;24.42;65.65;97859.47;5091426;28;20229;-22
2022/07/24 06:55:25;;;;;;;3.50;3.23;;;;;;;24.42;65.72;97851.78;5091440;28;20280;-22
2022/07/24 06:57:51;;;;;;;3.33;3.13;;;;;;;24.42;65.81;97854.34;5091447;28;20251;-23
2022/07/24 07:00:18;;;;;;;3.07;2.87;;;;;;;24.43;65.40;97850.09;5090417;28;20659;-22
2022/07/24 07:02:45;;;;;;;3.07;2.87;;;;;;;24.42;65.93;97856.91;5091745;28;20251;-24
2022/07/24 07:05:12;;;;;;;3.17;2.97;;;;;;;24.42;65.37;97850.94;5092123;28;20199;-22
2022/07/24 07:07:39;;;;;;;3.80;2.80;;;;;;;24.41;65.09;97847.47;5091808;28;20459;-23
2022/07/24 07:10:06;;;;;;;3.20;3.00;;;;;;;24.37;65.61;97840.50;5082363;28;20261;-22
2022/07/24 07:12:32;;;;;;;3.00;2.80;;;;;;;24.42;65.80;97850.94;5091129;28;20662;-22
2022/07/24 07:15:06;;;;;;;3.20;3.00;;;;;;;24.42;65.61;97844.06;5091843;28;20198;-21
2022/07/24 07:17:32;;;;;;;3.03;2.83;;;;;;;24.43;65.71;97853.53;5091560;28;20251;-23
2022/07/24 07:19:59;;;;;;;3.20;3.00;;;;;;;24.44;65.71;97854.38;5092093;28;20256;-22
2022/07/24 07:22:26;;;;;;;2.63;2.43;;;;;;;24.44;65.80;97857.84;5091617;28;20247;-22
2022/07/24 07:24:53;;;;;;;3.20;2.93;;;;;;;24.44;65.35;97854.38;5090351;28;20223;-22
2022/07/24 07:27:19;;;;;;;3.17;2.97;;;;;;;24.44;65.42;97860.41;5091220;28;20250;-24
2022/07/24 07:29:46;;;;;;;3.00;2.80;;;;;;;24.44;65.47;97857.84;5091241;28;20235;-23
2022/07/24 07:32:12;;;;;;;2.97;2.77;;;;;;;24.44;65.45;97862.97;5087175;28;20220;-23
2022/07/24 07:34:39;;;;;;;3.10;2.90;;;;;;;24.44;65.85;97856.94;5088278;28;20235;-22
2022/07/24 07:37:05;;;;;;;3.00;2.80;;;;;;;24.45;65.64;97853.56;5083371;28;20235;-23
2022/07/24 07:39:32;;;;;;;3.00;2.80;;;;;;;24.44;65.46;97857.84;5091460;28;20244;-23
2022/07/24 07:41:59;;;;;;;3.17;2.97;;;;;;;24.45;65.61;97863.84;5091390;28;20229;-22
2022/07/24 07:44:25;;;;;;;2.93;2.73;;;;;;;24.44;65.50;97852.69;5091170;28;20196;-23
2022/07/24 07:46:52;;;;;;;3.00;2.80;;;;;;;24.45;65.75;97861.28;5090808;28;20291;-23
2022/07/24 07:49:19;;;;;;;2.97;2.77;;;;;;;24.44;65.34;97854.38;5090887;28;20283;-23
2022/07/24 07:51:47;;;;;;;3.07;2.87;;;;;;;24.45;65.61;97862.13;5091349;28;20242;-23
2022/07/24 07:54:14;;;;;;;2.70;2.50;;;;;;;24.44;65.73;97856.94;5090992;28;20206;-22
2022/07/24 07:56:41;;;;;;;2.93;2.73;;;;;;;24.43;65.54;97848.41;5090678;28;20669;-23
2022/07/24 07:59:08;;;;;;;3.00;2.80;;;;;;;24.44;65.41;97855.25;5091062;28;20367;-22
2022/07/24 08:01:35;;;;;;;2.90;2.70;;;;;;;24.43;65.80;97855.22;5091192;28;20615;-22
2022/07/24 08:04:02;;;;;;;2.70;2.50;;;;;;;24.43;65.36;97850.09;5090774;28;20199;-23
2022/07/24 08:06:29;;;;;;;3.03;2.83;;;;;;;24.36;65.34;97838.78;5090666;28;20218;-23
2022/07/24 08:08:56;;;;;;;2.83;2.63;;;;;;;24.44;65.44;97851.81;5090759;28;20237;-23
2022/07/24 08:11:23;;;;;;;2.63;2.43;;;;;;;24.43;65.85;97858.69;5091214;28;20199;-23
2022/07/24 08:13:49;;;;;;;2.90;2.70;;;;;;;24.43;65.79;97850.97;5090418;28;20670;-22
2022/07/24 08:16:17;;;;;;;2.80;2.60;;;;;;;24.43;65.42;97852.66;5090318;28;20252;-23
2022/07/24 08:18:44;;;;;;;3.00;2.80;;;;;;;24.43;65.05;97847.53;5090721;28;20223;-23
2022/07/24 08:21:18;;;;;;;2.77;2.57;;;;;;;24.44;65.75;97854.38;5090680;28;20278;-22
2022/07/24 08:23:45;;;;;;;2.77;2.57;;;;;;;24.38;65.43;97842.28;5090390;28;20259;-22
2022/07/24 08:26:11;;;;;;;3.00;2.80;;;;;;;24.42;65.80;97838.94;5090438;28;20204;-23
2022/07/24 08:28:38;;;;;;;2.83;2.63;;;;;;;24.43;65.42;97852.66;5108376;22;20243;-31
2022/07/24 08:31:05;;;;;;;3.00;2.80;;;;;;;24.23;65.37;97813.66;5092711;28;20286;-32
2022/07/24 08:33:31;;;;;;;3.10;2.90;;;;;;;24.43;65.42;97847.53;5092529;28;20199;-31
2022/07/24 08:35:58;;;;;;;2.70;2.50;;;;;;;24.40;65.78;97842.31;5092614;28;20237;-31
2022/07/24 08:38:25;;;;;;;2.90;2.70;;;;;;;24.43;65.46;97837.25;5092280;28;20247;-31
2022/07/24 08:40:51;;;;;;;2.90;2.70;;;;;;;24.41;65.66;97829.50;5093047;28;20203;-31
2022/07/24 08:43:18;;;;;;;3.10;2.90;;;;;;;24.43;65.39;97835.56;5091043;28;20250;-31
2022/07/24 08:45:44;;;;;;;2.80;2.60;;;;;;;24.26;65.44;97806.03;5092634;28;20685;-31
2022/07/24 08:48:11;;;;;;;3.50;2.80;;;;;;;24.44;65.70;97837.28;5093099;28;20215;-31
2022/07/24 08:50:40;;;;;;;2.90;2.60;;;;;;;24.37;65.68;97825.09;5097360;28;20223;-31
2022/07/24 08:53:07;;;;;;;2.70;2.50;;;;;;;24.42;65.62;97833.78;5091630;28;20214;-31
2022/07/24 08:55:34;;;;;;;2.90;2.70;;;;;;;24.41;65.32;97824.38;5092745;28;20222;-31
2022/07/24 08:58:00;;;;;;;3.20;3.00;;;;;;;24.44;65.45;97837.28;5096295;28;20660;-31
2022/07/24 09:00:29;;;;;;;2.70;2.50;;;;;;;23.77;65.58;97720.94;5096894;28;20199;-31
2022/07/24 09:02:55;;;;;;;2.90;2.70;;;;;;;24.46;65.69;97834.75;5096625;28;20480;-31
2022/07/24 09:05:22;;;;;;;2.60;2.40;;;;;;;24.45;65.49;97831.28;5096946;28;20208;-31
2022/07/24 09:08:04;;;;;;;2.40;2.23;;;;;;;24.42;65.73;97827.81;5096702;28;20732;-31
2022/07/24 09:10:33;;;;;;;2.90;2.70;;;;;;;24.39;65.51;97820.88;5076551;28;20241;-31
2022/07/24 09:13:00;;;;;;;3.03;2.83;;;;;;;24.44;65.88;97826.13;5096794;28;20573;-31
2022/07/24 09:15:28;;;;;;;2.83;2.63;;;;;;;24.45;65.90;97833.03;5078910;28;20238;-31
2022/07/24 09:17:56;;;;;;;2.80;2.60;;;;;;;24.39;65.72;97815.75;5097178;28;20255;-31
2022/07/24 09:20:26;;;;;;;2.80;2.60;;;;;;;24.42;65.79;97825.25;5096852;28;20585;-31
2022/07/24 09:22:56;;;;;;;2.70;2.50;;;;;;;24.45;65.93;97827.88;5097445;28;20589;-31
2022/07/24 09:25:24;;;;;;;2.97;2.77;;;;;;;24.44;65.55;97824.44;5097048;28;20254;-31
2022/07/24 09:27:55;;;;;;;2.83;2.63;;;;;;;24.44;65.68;97834.72;5097101;28;20215;-33
2022/07/24 09:30:23;;;;;;;2.70;2.50;;;;;;;24.43;65.91;97835.56;5087739;28;20200;-32
2022/07/24 09:33:03;;;;;;;2.80;2.60;;;;;;;24.44;65.70;97828.69;5095653;28;20646;-31
2022/07/24 09:35:37;;;;;;;2.70;2.50;;;;;;;24.41;65.55;97818.34;5089835;28;20234;-31
2022/07/24 09:38:05;;;;;;;2.43;2.33;;;;;;;24.39;65.49;97818.31;5095154;28;20255;-31
2022/07/24 09:40:34;;;;;;;2.20;2.10;;;;;;;24.40;65.78;97819.19;5095095;28;20200;-31
2022/07/24 09:43:16;;;;;;;3.03;2.83;;;;;;;24.43;65.92;97830.41;5095238;28;20666;-31
2022/07/24 09:45:50;;;;;;;2.80;2.60;;;;;;;24.41;65.57;97819.22;5094986;28;20210;-31
2022/07/24 09:48:18;;;;;;;2.80;2.60;;;;;;;24.44;65.42;97820.97;5095632;28;20683;-30
2022/07/24 09:50:53;;;;;;;2.80;2.60;;;;;;;24.41;65.86;97816.66;5077052;28;20227;-31
2022/07/24 09:53:21;;;;;;;2.80;2.60;;;;;;;24.34;65.40;97807.06;5095664;28;20191;-31
2022/07/24 09:55:57;;;;;;;2.80;2.60;;;;;;;24.42;65.73;97814.97;5092519;28;20243;-31
2022/07/24 09:58:25;;;;;;;2.70;2.50;;;;;;;24.43;65.52;97816.69;5095267;28;20765;-31
2022/07/24 10:00:54;;;;;;;3.00;2.80;;;;;;;24.42;65.49;97815.81;5092315;28;20237;-31
2022/07/24 10:03:24;;;;;;;2.83;2.63;;;;;;;24.37;65.43;97804.56;5093747;28;20261;-31
2022/07/24 10:05:53;;;;;;;2.70;2.50;;;;;;;24.44;65.73;97808.13;5094595;28;20235;-31
2022/07/24 10:08:20;;;;;;;2.50;2.40;;;;;;;24.44;65.46;97811.59;5095019;28;20265;-31
2022/07/24 10:10:48;;;;;;;2.93;2.73;;;;;;;24.39;65.62;97799.47;5093836;28;20200;-31
2022/07/24 10:13:27;;;;;;;2.57;2.37;;;;;;;24.44;65.93;97800.44;5093413;28;20725;-31
2022/07/24 10:16:07;;;;;;;2.70;2.50;;;;;;;24.46;65.75;97809.03;5094802;28;20207;-31
2022/07/24 10:19:03;;;;;;;2.73;2.53;;;;;;;24.45;65.38;97803.03;5094919;28;20307;-31
2022/07/24 10:21:36;;;;;;;2.50;2.40;;;;;;;24.42;65.44;97795.25;5090215;28;20640;-31
2022/07/24 10:24:09;;;;;;;2.43;2.30;;;;;;;24.45;65.50;97784.19;5093467;28;20261;-31
2022/07/24 10:26:42;;;;;;;2.80;2.60;;;;;;;24.45;65.28;97776.50;5094710;28;20203;-31
2022/07/24 10:29:13;;;;;;;2.97;2.77;;;;;;;24.44;65.38;97778.19;5086949;28;20231;-31
2022/07/24 10:31:42;;;;;;;2.90;2.70;;;;;;;24.31;65.46;97750.47;5095227;28;20676;-31
2022/07/24 10:34:23;;;;;;;2.80;2.60;;;;;;;24.45;65.48;97771.34;5094820;28;20277;-31
2022/07/24 10:37:25;;;;;;;2.80;2.60;;;;;;;24.41;65.42;97770.41;5094976;28;20203;-31
2022/07/24 10:40:23;;;;;;;3.03;2.83;;;;;;;24.43;65.71;97766.19;5012135;28;20229;-31
2022/07/24 10:43:08;;;;;;;3.00;2.80;;;;;;;24.44;65.74;97764.47;5094612;28;20910;-31
2022/07/24 10:45:35;;;;;;;2.67;2.53;;;;;;;24.44;65.42;97767.91;5094715;28;20203;-31
2022/07/24 10:48:20;;;;;;;3.07;2.87;;;;;;;24.44;65.61;97772.16;5094377;28;20215;-31
2022/07/24 10:51:08;;;;;;;2.73;2.53;;;;;;;24.44;65.42;97769.59;5094959;28;20218;-31
2022/07/24 10:53:37;;;;;;;2.83;2.63;;;;;;;24.44;65.52;97764.47;5090542;28;20623;-32
2022/07/24 10:56:18;;;;;;;2.77;2.57;;;;;;;24.44;65.51;97767.03;5094277;28;20669;-32
2022/07/24 10:58:54;;;;;;;3.10;2.90;;;;;;;24.44;65.71;97765.34;5091575;28;20239;-31
2022/07/24 11:01:56;;;;;;;2.67;2.47;;;;;;;24.40;65.39;97760.97;5094786;28;20229;-31
2022/07/24 11:04:23;;;;;;;2.97;2.77;;;;;;;24.44;65.51;97765.34;5094172;28;20223;-31
2022/07/24 11:07:09;;;;;;;2.83;2.63;;;;;;;24.43;65.67;97757.59;5094109;28;20200;-31
2022/07/24 11:10:01;;;;;;;2.80;2.60;;;;;;;24.43;65.53;97761.03;5094224;28;20258;-31
2022/07/24 11:12:32;;;;;;;2.83;2.63;;;;;;;24.43;65.86;97758.47;5088935;28;20231;-31
2022/07/24 11:17:51;;;;;;;2.80;2.60;;;;;;;24.44;65.36;97759.31;5094738;28;20230;-31
2022/07/24 11:20:19;;;;;;;2.73;2.53;;;;;;;24.43;65.61;97749.88;5094308;28;20275;-31
2022/07/24 11:22:50;;;;;;;2.50;2.30;;;;;;;24.43;65.72;97753.34;5094614;28;20255;-31
2022/07/24 11:25:27;;;;;;;2.60;2.40;;;;;;;24.37;65.77;97739.47;5094341;28;20490;-31
2022/07/24 11:28:06;;;;;;;2.73;2.53;;;;;;;24.43;65.62;97745.63;5094305;28;20231;-31
2022/07/24 11:30:32;;;;;;;2.80;2.60;;;;;;;24.38;65.64;97731.81;5094241;28;20282;-31
2022/07/24 11:32:59;;;;;;;2.87;2.67;;;;;;;24.41;65.66;97742.16;5094520;28;20261;-31
2022/07/24 11:35:33;;;;;;;2.80;2.60;;;;;;;24.45;65.64;97740.53;5094115;28;20601;-32
2022/07/24 11:38:01;;;;;;;2.50;2.30;;;;;;;24.44;65.77;97737.06;5094240;28;20240;-31
2022/07/24 11:40:28;;;;;;;2.60;2.40;;;;;;;24.45;65.90;97730.25;5092686;28;20620;-31
2022/07/24 11:42:59;;;;;;;2.83;2.63;;;;;;;24.44;65.60;97729.38;5093011;28;20247;-31